sensor_id;sensor_type;location;lat;lon;timestamp;P1;durP1;ratioP1;P2;durP2;ratioP2
3563;SDS011;1796;52.388;13.096;2022-10-31T00:01:26;35.50;;;20.90;;
3563;SDS011;1796;52.388;13.096;2022-10-31T00:03:55;42.80;;;21.70;;
3563;SDS011;1796;52.388;13.096;2022-10-31T00:06:21;39.00;;;20.97;;
3563;SDS011;1796;52.388;13.096;2022-10-31T00:08:51;48.97;;;23.27;;
3563;SDS011;1796;52.388;13.096;2022-10-31T00:11:19;34.43;;;20.60;;
3563;SDS011;1796;52.388;13.096;2022-10-31T00:13:46;38.57;;;21.50;;
3563;SDS011;1796;52.388;13.096;2022-10-31T00:16:15;32.93;;;19.10;;
3563;SDS011;1796;52.388;13.096;2022-10-31T00:18:42;28.67;;;19.20;;
3563;SDS011;1796;52.388;13.096;2022-10-31T00:21:09;36.30;;;19.87;;
3563;SDS011;1796;52.388;13.096;2022-10-31T00:23:36;44.00;;;20.50;;
3563;SDS011;1796;52.388;13.096;2022-10-31T00:26:03;37.97;;;21.80;;
3563;SDS011;1796;52.388;13.096;2022-10-31T00:28:32;44.73;;;21.77;;
3563;SDS011;1796;52.388;13.096;2022-10-31T00:30:59;46.37;;;19.87;;
3563;SDS011;1796;52.388;13.096;2022-10-31T00:33:28;36.20;;;18.77;;
3563;SDS011;1796;52.388;13.096;2022-10-31T00:35:55;34.63;;;17.67;;
3563;SDS011;1796;52.388;13.096;2022-10-31T00:38:22;32.67;;;18.57;;
3563;SDS011;1796;52.388;13.096;2022-10-31T00:40:49;27.40;;;17.90;;
3563;SDS011;1796;52.388;13.096;2022-10-31T00:43:16;37.70;;;19.87;;
3563;SDS011;1796;52.388;13.096;2022-10-31T00:45:43;29.03;;;18.80;;
3563;SDS011;1796;52.388;13.096;2022-10-31T00:48:11;27.20;;;17.40;;
3563;SDS011;1796;52.388;13.096;2022-10-31T00:50:40;37.50;;;19.77;;
3563;SDS011;1796;52.388;13.096;2022-10-31T00:53:07;26.00;;;17.70;;
3563;SDS011;1796;52.388;13.096;2022-10-31T00:55:34;31.87;;;17.00;;
3563;SDS011;1796;52.388;13.096;2022-10-31T00:58:01;31.60;;;17.87;;
3563;SDS011;1796;52.388;13.096;2022-10-31T01:00:28;32.57;;;17.53;;
3563;SDS011;1796;52.388;13.096;2022-10-31T01:02:55;32.70;;;16.93;;
3563;SDS011;1796;52.388;13.096;2022-10-31T01:05:22;32.20;;;18.17;;
3563;SDS011;1796;52.388;13.096;2022-10-31T01:07:50;41.67;;;18.50;;
3563;SDS011;1796;52.388;13.096;2022-10-31T01:10:17;34.57;;;17.03;;
3563;SDS011;1796;52.388;13.096;2022-10-31T01:12:45;35.80;;;18.83;;
3563;SDS011;1796;52.388;13.096;2022-10-31T01:15:14;35.13;;;18.60;;
3563;SDS011;1796;52.388;13.096;2022-10-31T01:17:43;37.10;;;17.63;;
3563;SDS011;1796;52.388;13.096;2022-10-31T01:20:10;37.70;;;18.77;;
3563;SDS011;1796;52.388;13.096;2022-10-31T01:22:38;29.40;;;18.23;;
3563;SDS011;1796;52.388;13.096;2022-10-31T01:25:08;31.07;;;17.57;;
3563;SDS011;1796;52.388;13.096;2022-10-31T01:27:35;29.20;;;17.10;;
3563;SDS011;1796;52.388;13.096;2022-10-31T01:30:02;25.43;;;16.47;;
3563;SDS011;1796;52.388;13.096;2022-10-31T01:32:30;29.93;;;17.47;;
3563;SDS011;1796;52.388;13.096;2022-10-31T01:34:57;30.87;;;17.90;;
3563;SDS011;1796;52.388;13.096;2022-10-31T01:37:24;33.50;;;17.37;;
3563;SDS011;1796;52.388;13.096;2022-10-31T01:39:51;34.90;;;18.17;;
3563;SDS011;1796;52.388;13.096;2022-10-31T01:42:19;29.40;;;17.50;;
3563;SDS011;1796;52.388;13.096;2022-10-31T01:44:50;31.70;;;15.30;;
3563;SDS011;1796;52.388;13.096;2022-10-31T01:47:19;27.80;;;17.27;;
3563;SDS011;1796;52.388;13.096;2022-10-31T01:49:54;27.80;;;16.97;;
3563;SDS011;1796;52.388;13.096;2022-10-31T01:52:24;37.53;;;16.40;;
3563;SDS011;1796;52.388;13.096;2022-10-31T01:54:55;33.20;;;18.00;;
3563;SDS011;1796;52.388;13.096;2022-10-31T01:57:27;31.27;;;19.00;;
3563;SDS011;1796;52.388;13.096;2022-10-31T01:59:57;30.17;;;17.03;;
3563;SDS011;1796;52.388;13.096;2022-10-31T02:02:26;26.00;;;16.07;;
3563;SDS011;1796;52.388;13.096;2022-10-31T02:04:56;31.33;;;17.07;;
3563;SDS011;1796;52.388;13.096;2022-10-31T02:07:26;33.80;;;17.87;;
3563;SDS011;1796;52.388;13.096;2022-10-31T02:09:59;40.57;;;17.73;;
3563;SDS011;1796;52.388;13.096;2022-10-31T02:12:28;28.30;;;17.37;;
3563;SDS011;1796;52.388;13.096;2022-10-31T02:14:56;35.33;;;17.27;;
3563;SDS011;1796;52.388;13.096;2022-10-31T02:17:23;37.67;;;17.97;;
3563;SDS011;1796;52.388;13.096;2022-10-31T02:19:52;28.23;;;16.70;;
3563;SDS011;1796;52.388;13.096;2022-10-31T02:22:27;31.77;;;17.87;;
3563;SDS011;1796;52.388;13.096;2022-10-31T02:25:08;23.77;;;15.63;;
3563;SDS011;1796;52.388;13.096;2022-10-31T02:27:59;39.10;;;17.60;;
3563;SDS011;1796;52.388;13.096;2022-10-31T02:30:57;33.53;;;16.70;;
3563;SDS011;1796;52.388;13.096;2022-10-31T02:33:32;25.13;;;15.00;;
3563;SDS011;1796;52.388;13.096;2022-10-31T02:36:07;25.73;;;16.40;;
3563;SDS011;1796;52.388;13.096;2022-10-31T02:38:42;29.03;;;14.90;;
3563;SDS011;1796;52.388;13.096;2022-10-31T02:41:17;33.53;;;15.77;;
3563;SDS011;1796;52.388;13.096;2022-10-31T02:43:49;29.90;;;16.20;;
3563;SDS011;1796;52.388;13.096;2022-10-31T02:46:36;39.60;;;16.03;;
3563;SDS011;1796;52.388;13.096;2022-10-31T02:49:10;38.20;;;15.80;;
3563;SDS011;1796;52.388;13.096;2022-10-31T02:51:43;34.47;;;17.37;;
3563;SDS011;1796;52.388;13.096;2022-10-31T02:54:17;28.53;;;16.60;;
3563;SDS011;1796;52.388;13.096;2022-10-31T02:56:45;34.77;;;16.40;;
3563;SDS011;1796;52.388;13.096;2022-10-31T02:59:14;28.20;;;16.27;;
3563;SDS011;1796;52.388;13.096;2022-10-31T03:01:57;23.07;;;14.70;;
3563;SDS011;1796;52.388;13.096;2022-10-31T03:04:40;25.10;;;15.83;;
3563;SDS011;1796;52.388;13.096;2022-10-31T03:07:27;25.77;;;14.80;;
3563;SDS011;1796;52.388;13.096;2022-10-31T03:10:02;39.30;;;16.17;;
3563;SDS011;1796;52.388;13.096;2022-10-31T03:12:37;27.33;;;16.10;;
3563;SDS011;1796;52.388;13.096;2022-10-31T03:15:10;35.03;;;16.97;;
3563;SDS011;1796;52.388;13.096;2022-10-31T03:17:43;27.73;;;16.33;;
3563;SDS011;1796;52.388;13.096;2022-10-31T03:20:17;27.53;;;16.17;;
3563;SDS011;1796;52.388;13.096;2022-10-31T03:22:49;28.17;;;16.97;;
3563;SDS011;1796;52.388;13.096;2022-10-31T03:25:17;30.60;;;16.77;;
3563;SDS011;1796;52.388;13.096;2022-10-31T03:27:44;28.77;;;17.20;;
3563;SDS011;1796;52.388;13.096;2022-10-31T03:30:13;35.40;;;16.90;;
3563;SDS011;1796;52.388;13.096;2022-10-31T03:32:44;33.17;;;17.40;;
3563;SDS011;1796;52.388;13.096;2022-10-31T03:35:15;41.10;;;17.43;;
3563;SDS011;1796;52.388;13.096;2022-10-31T03:37:45;32.40;;;17.20;;
3563;SDS011;1796;52.388;13.096;2022-10-31T03:40:14;33.03;;;16.70;;
3563;SDS011;1796;52.388;13.096;2022-10-31T03:42:46;40.47;;;16.43;;
3563;SDS011;1796;52.388;13.096;2022-10-31T03:45:19;51.07;;;17.30;;
3563;SDS011;1796;52.388;13.096;2022-10-31T03:47:50;36.80;;;15.77;;
3563;SDS011;1796;52.388;13.096;2022-10-31T03:50:19;33.13;;;16.93;;
3563;SDS011;1796;52.388;13.096;2022-10-31T03:52:47;35.93;;;16.70;;
3563;SDS011;1796;52.388;13.096;2022-10-31T03:55:22;43.47;;;16.27;;
3563;SDS011;1796;52.388;13.096;2022-10-31T03:57:55;33.03;;;16.50;;
3563;SDS011;1796;52.388;13.096;2022-10-31T04:00:25;26.43;;;15.77;;
3563;SDS011;1796;52.388;13.096;2022-10-31T04:02:55;31.07;;;15.50;;
3563;SDS011;1796;52.388;13.096;2022-10-31T04:05:26;34.10;;;17.00;;
3563;SDS011;1796;52.388;13.096;2022-10-31T04:07:54;32.60;;;16.20;;
3563;SDS011;1796;52.388;13.096;2022-10-31T04:10:24;38.57;;;15.73;;
3563;SDS011;1796;52.388;13.096;2022-10-31T04:12:56;36.30;;;15.37;;
3563;SDS011;1796;52.388;13.096;2022-10-31T04:15:27;31.30;;;15.13;;
3563;SDS011;1796;52.388;13.096;2022-10-31T04:17:57;31.50;;;15.87;;
3563;SDS011;1796;52.388;13.096;2022-10-31T04:20:29;27.97;;;13.40;;
3563;SDS011;1796;52.388;13.096;2022-10-31T04:22:57;27.70;;;14.43;;
3563;SDS011;1796;52.388;13.096;2022-10-31T04:25:24;36.70;;;16.07;;
3563;SDS011;1796;52.388;13.096;2022-10-31T04:27:50;34.50;;;13.70;;
3563;SDS011;1796;52.388;13.096;2022-10-31T04:30:17;24.80;;;14.40;;
3563;SDS011;1796;52.388;13.096;2022-10-31T04:32:44;27.80;;;14.13;;
3563;SDS011;1796;52.388;13.096;2022-10-31T04:35:12;18.93;;;12.57;;
3563;SDS011;1796;52.388;13.096;2022-10-31T04:37:39;30.13;;;13.40;;
3563;SDS011;1796;52.388;13.096;2022-10-31T04:40:06;28.90;;;13.33;;
3563;SDS011;1796;52.388;13.096;2022-10-31T04:42:34;30.90;;;14.00;;
3563;SDS011;1796;52.388;13.096;2022-10-31T04:45:01;33.20;;;12.43;;
3563;SDS011;1796;52.388;13.096;2022-10-31T04:47:30;25.43;;;13.33;;
3563;SDS011;1796;52.388;13.096;2022-10-31T04:49:57;26.20;;;12.40;;
3563;SDS011;1796;52.388;13.096;2022-10-31T04:52:25;25.07;;;13.07;;
3563;SDS011;1796;52.388;13.096;2022-10-31T04:54:52;27.27;;;12.80;;
3563;SDS011;1796;52.388;13.096;2022-10-31T04:57:19;28.73;;;14.50;;
3563;SDS011;1796;52.388;13.096;2022-10-31T04:59:46;35.40;;;12.47;;
3563;SDS011;1796;52.388;13.096;2022-10-31T05:02:13;24.23;;;12.73;;
3563;SDS011;1796;52.388;13.096;2022-10-31T05:04:40;27.20;;;14.40;;
3563;SDS011;1796;52.388;13.096;2022-10-31T05:07:06;41.53;;;14.27;;
3563;SDS011;1796;52.388;13.096;2022-10-31T05:09:35;34.93;;;14.57;;
3563;SDS011;1796;52.388;13.096;2022-10-31T05:12:01;27.57;;;14.30;;
3563;SDS011;1796;52.388;13.096;2022-10-31T05:14:29;25.13;;;14.03;;
3563;SDS011;1796;52.388;13.096;2022-10-31T05:16:55;32.50;;;14.90;;
3563;SDS011;1796;52.388;13.096;2022-10-31T05:19:22;26.83;;;14.60;;
3563;SDS011;1796;52.388;13.096;2022-10-31T05:21:49;25.07;;;13.93;;
3563;SDS011;1796;52.388;13.096;2022-10-31T05:24:16;33.70;;;15.00;;
3563;SDS011;1796;52.388;13.096;2022-10-31T05:26:44;47.53;;;14.90;;
3563;SDS011;1796;52.388;13.096;2022-10-31T05:29:11;32.53;;;14.63;;
3563;SDS011;1796;52.388;13.096;2022-10-31T05:31:38;36.53;;;14.03;;
3563;SDS011;1796;52.388;13.096;2022-10-31T05:34:05;27.17;;;15.50;;
3563;SDS011;1796;52.388;13.096;2022-10-31T05:36:32;26.67;;;14.67;;
3563;SDS011;1796;52.388;13.096;2022-10-31T05:38:58;34.60;;;14.70;;
3563;SDS011;1796;52.388;13.096;2022-10-31T05:41:25;28.50;;;13.10;;
3563;SDS011;1796;52.388;13.096;2022-10-31T05:43:53;29.73;;;14.37;;
3563;SDS011;1796;52.388;13.096;2022-10-31T05:46:20;27.83;;;14.00;;
3563;SDS011;1796;52.388;13.096;2022-10-31T05:48:47;34.17;;;14.53;;
3563;SDS011;1796;52.388;13.096;2022-10-31T05:51:14;31.27;;;13.63;;
3563;SDS011;1796;52.388;13.096;2022-10-31T05:53:41;38.43;;;14.97;;
3563;SDS011;1796;52.388;13.096;2022-10-31T05:56:08;31.13;;;13.50;;
3563;SDS011;1796;52.388;13.096;2022-10-31T05:58:35;24.10;;;13.30;;
3563;SDS011;1796;52.388;13.096;2022-10-31T06:01:03;32.43;;;13.10;;
3563;SDS011;1796;52.388;13.096;2022-10-31T06:03:30;30.90;;;13.50;;
3563;SDS011;1796;52.388;13.096;2022-10-31T06:05:57;24.87;;;14.30;;
3563;SDS011;1796;52.388;13.096;2022-10-31T06:08:24;32.40;;;15.30;;
3563;SDS011;1796;52.388;13.096;2022-10-31T06:10:51;30.87;;;13.87;;
3563;SDS011;1796;52.388;13.096;2022-10-31T06:13:18;29.13;;;13.97;;
3563;SDS011;1796;52.388;13.096;2022-10-31T06:15:45;36.03;;;14.80;;
3563;SDS011;1796;52.388;13.096;2022-10-31T06:18:14;28.53;;;14.40;;
3563;SDS011;1796;52.388;13.096;2022-10-31T06:20:40;31.50;;;14.97;;
3563;SDS011;1796;52.388;13.096;2022-10-31T06:23:07;35.67;;;14.43;;
3563;SDS011;1796;52.388;13.096;2022-10-31T06:25:34;43.73;;;15.90;;
3563;SDS011;1796;52.388;13.096;2022-10-31T06:28:01;26.07;;;16.13;;
3563;SDS011;1796;52.388;13.096;2022-10-31T06:30:28;34.07;;;15.60;;
3563;SDS011;1796;52.388;13.096;2022-10-31T06:33:00;34.57;;;14.57;;
3563;SDS011;1796;52.388;13.096;2022-10-31T06:35:29;30.97;;;17.10;;
3563;SDS011;1796;52.388;13.096;2022-10-31T06:37:57;29.80;;;16.00;;
3563;SDS011;1796;52.388;13.096;2022-10-31T06:40:24;29.50;;;15.10;;
3563;SDS011;1796;52.388;13.096;2022-10-31T06:42:57;32.60;;;16.37;;
3563;SDS011;1796;52.388;13.096;2022-10-31T06:45:25;32.03;;;15.40;;
3563;SDS011;1796;52.388;13.096;2022-10-31T06:47:52;37.10;;;16.13;;
3563;SDS011;1796;52.388;13.096;2022-10-31T06:50:19;34.43;;;15.00;;
3563;SDS011;1796;52.388;13.096;2022-10-31T06:52:51;31.53;;;16.63;;
3563;SDS011;1796;52.388;13.096;2022-10-31T06:55:18;50.13;;;18.47;;
3563;SDS011;1796;52.388;13.096;2022-10-31T06:57:51;33.03;;;16.57;;
3563;SDS011;1796;52.388;13.096;2022-10-31T07:00:18;35.27;;;16.33;;
3563;SDS011;1796;52.388;13.096;2022-10-31T07:02:52;34.00;;;18.00;;
3563;SDS011;1796;52.388;13.096;2022-10-31T07:05:20;38.10;;;16.47;;
3563;SDS011;1796;52.388;13.096;2022-10-31T07:07:47;39.83;;;16.33;;
3563;SDS011;1796;52.388;13.096;2022-10-31T07:10:18;35.43;;;18.10;;
3563;SDS011;1796;52.388;13.096;2022-10-31T07:12:45;43.13;;;17.33;;
3563;SDS011;1796;52.388;13.096;2022-10-31T07:15:13;37.83;;;16.43;;
3563;SDS011;1796;52.388;13.096;2022-10-31T07:17:39;28.67;;;15.60;;
3563;SDS011;1796;52.388;13.096;2022-10-31T07:20:07;32.03;;;15.70;;
3563;SDS011;1796;52.388;13.096;2022-10-31T07:22:34;31.60;;;16.40;;
3563;SDS011;1796;52.388;13.096;2022-10-31T07:25:02;31.70;;;16.07;;
3563;SDS011;1796;52.388;13.096;2022-10-31T07:27:36;35.23;;;15.83;;
3563;SDS011;1796;52.388;13.096;2022-10-31T07:30:03;38.43;;;16.37;;
3563;SDS011;1796;52.388;13.096;2022-10-31T07:32:37;30.97;;;15.33;;
3563;SDS011;1796;52.388;13.096;2022-10-31T07:35:04;39.80;;;16.20;;
3563;SDS011;1796;52.388;13.096;2022-10-31T07:37:32;39.33;;;17.33;;
3563;SDS011;1796;52.388;13.096;2022-10-31T07:39:59;29.67;;;15.17;;
3563;SDS011;1796;52.388;13.096;2022-10-31T07:42:26;35.67;;;15.40;;
3563;SDS011;1796;52.388;13.096;2022-10-31T07:44:55;39.03;;;15.80;;
3563;SDS011;1796;52.388;13.096;2022-10-31T07:47:22;31.17;;;15.50;;
3563;SDS011;1796;52.388;13.096;2022-10-31T07:49:49;29.63;;;15.60;;
3563;SDS011;1796;52.388;13.096;2022-10-31T07:52:16;32.10;;;16.20;;
3563;SDS011;1796;52.388;13.096;2022-10-31T07:54:42;30.87;;;15.87;;
3563;SDS011;1796;52.388;13.096;2022-10-31T07:57:09;28.70;;;14.80;;
3563;SDS011;1796;52.388;13.096;2022-10-31T07:59:36;25.37;;;14.20;;
3563;SDS011;1796;52.388;13.096;2022-10-31T08:02:04;38.03;;;16.03;;
3563;SDS011;1796;52.388;13.096;2022-10-31T08:04:32;30.37;;;16.00;;
3563;SDS011;1796;52.388;13.096;2022-10-31T08:06:58;53.80;;;18.17;;
3563;SDS011;1796;52.388;13.096;2022-10-31T08:09:25;33.63;;;16.33;;
3563;SDS011;1796;52.388;13.096;2022-10-31T08:11:52;27.40;;;16.27;;
3563;SDS011;1796;52.388;13.096;2022-10-31T08:14:19;30.70;;;17.30;;
3563;SDS011;1796;52.388;13.096;2022-10-31T08:16:47;34.90;;;16.47;;
3563;SDS011;1796;52.388;13.096;2022-10-31T08:19:15;33.70;;;17.03;;
3563;SDS011;1796;52.388;13.096;2022-10-31T08:21:42;29.53;;;16.73;;
3563;SDS011;1796;52.388;13.096;2022-10-31T08:24:09;33.67;;;16.73;;
3563;SDS011;1796;52.388;13.096;2022-10-31T08:26:36;34.40;;;17.33;;
3563;SDS011;1796;52.388;13.096;2022-10-31T08:29:03;28.83;;;17.03;;
3563;SDS011;1796;52.388;13.096;2022-10-31T08:31:30;31.60;;;16.47;;
3563;SDS011;1796;52.388;13.096;2022-10-31T08:33:57;42.13;;;17.70;;
3563;SDS011;1796;52.388;13.096;2022-10-31T08:36:26;29.83;;;17.20;;
3563;SDS011;1796;52.388;13.096;2022-10-31T08:38:53;30.63;;;17.13;;
3563;SDS011;1796;52.388;13.096;2022-10-31T08:41:21;31.60;;;17.40;;
3563;SDS011;1796;52.388;13.096;2022-10-31T08:43:47;29.27;;;17.53;;
3563;SDS011;1796;52.388;13.096;2022-10-31T08:46:14;36.53;;;17.20;;
3563;SDS011;1796;52.388;13.096;2022-10-31T08:48:42;31.17;;;17.37;;
3563;SDS011;1796;52.388;13.096;2022-10-31T08:51:09;32.47;;;17.80;;
3563;SDS011;1796;52.388;13.096;2022-10-31T08:53:38;35.90;;;16.60;;
3563;SDS011;1796;52.388;13.096;2022-10-31T08:56:05;34.73;;;19.20;;
3563;SDS011;1796;52.388;13.096;2022-10-31T08:58:32;38.37;;;18.37;;
3563;SDS011;1796;52.388;13.096;2022-10-31T09:01:00;28.07;;;16.27;;
3563;SDS011;1796;52.388;13.096;2022-10-31T09:03:28;34.63;;;17.23;;
3563;SDS011;1796;52.388;13.096;2022-10-31T09:05:58;43.87;;;18.60;;
3563;SDS011;1796;52.388;13.096;2022-10-31T09:08:28;34.83;;;18.33;;
3563;SDS011;1796;52.388;13.096;2022-10-31T09:10:58;36.53;;;20.17;;
3563;SDS011;1796;52.388;13.096;2022-10-31T09:13:25;37.40;;;19.60;;
3563;SDS011;1796;52.388;13.096;2022-10-31T09:15:52;47.77;;;19.60;;
3563;SDS011;1796;52.388;13.096;2022-10-31T09:18:20;44.77;;;20.47;;
3563;SDS011;1796;52.388;13.096;2022-10-31T09:20:48;40.57;;;19.70;;
3563;SDS011;1796;52.388;13.096;2022-10-31T09:23:16;36.57;;;21.47;;
3563;SDS011;1796;52.388;13.096;2022-10-31T09:25:44;35.73;;;19.83;;
3563;SDS011;1796;52.388;13.096;2022-10-31T09:28:14;39.37;;;19.67;;
3563;SDS011;1796;52.388;13.096;2022-10-31T09:30:42;37.70;;;20.07;;
3563;SDS011;1796;52.388;13.096;2022-10-31T09:33:13;37.67;;;20.10;;
3563;SDS011;1796;52.388;13.096;2022-10-31T09:35:40;35.40;;;19.60;;
3563;SDS011;1796;52.388;13.096;2022-10-31T09:38:09;48.40;;;20.47;;
3563;SDS011;1796;52.388;13.096;2022-10-31T09:40:38;41.30;;;21.30;;
3563;SDS011;1796;52.388;13.096;2022-10-31T09:43:15;36.23;;;20.10;;
3563;SDS011;1796;52.388;13.096;2022-10-31T09:45:51;41.83;;;18.77;;
3563;SDS011;1796;52.388;13.096;2022-10-31T09:48:28;41.70;;;20.07;;
3563;SDS011;1796;52.388;13.096;2022-10-31T09:51:04;48.20;;;20.67;;
3563;SDS011;1796;52.388;13.096;2022-10-31T09:53:37;45.50;;;21.90;;
3563;SDS011;1796;52.388;13.096;2022-10-31T09:56:06;44.60;;;22.00;;
3563;SDS011;1796;52.388;13.096;2022-10-31T09:58:39;39.43;;;21.60;;
3563;SDS011;1796;52.388;13.096;2022-10-31T10:01:16;50.20;;;22.10;;
3563;SDS011;1796;52.388;13.096;2022-10-31T10:04:05;44.33;;;20.20;;
3563;SDS011;1796;52.388;13.096;2022-10-31T10:06:44;40.53;;;21.40;;
3563;SDS011;1796;52.388;13.096;2022-10-31T10:09:13;41.87;;;20.57;;
3563;SDS011;1796;52.388;13.096;2022-10-31T10:14:38;31.90;;;20.13;;
3563;SDS011;1796;52.388;13.096;2022-10-31T10:17:22;34.70;;;21.00;;
3563;SDS011;1796;52.388;13.096;2022-10-31T10:20:05;35.63;;;19.70;;
3563;SDS011;1796;52.388;13.096;2022-10-31T10:22:46;38.43;;;23.53;;
3563;SDS011;1796;52.388;13.096;2022-10-31T10:25:20;44.40;;;22.10;;
3563;SDS011;1796;52.388;13.096;2022-10-31T10:27:50;36.50;;;21.67;;
3563;SDS011;1796;52.388;13.096;2022-10-31T10:30:35;35.77;;;20.40;;
3563;SDS011;1796;52.388;13.096;2022-10-31T10:33:09;37.40;;;19.37;;
3563;SDS011;1796;52.388;13.096;2022-10-31T10:35:39;41.43;;;20.40;;
3563;SDS011;1796;52.388;13.096;2022-10-31T10:38:11;49.07;;;20.27;;
3563;SDS011;1796;52.388;13.096;2022-10-31T10:40:42;41.20;;;20.47;;
3563;SDS011;1796;52.388;13.096;2022-10-31T10:43:18;37.13;;;21.17;;
3563;SDS011;1796;52.388;13.096;2022-10-31T10:45:55;42.30;;;20.40;;
3563;SDS011;1796;52.388;13.096;2022-10-31T10:48:47;38.43;;;21.43;;
3563;SDS011;1796;52.388;13.096;2022-10-31T10:51:22;33.97;;;18.53;;
3563;SDS011;1796;52.388;13.096;2022-10-31T10:54:01;33.30;;;19.90;;
3563;SDS011;1796;52.388;13.096;2022-10-31T10:56:48;39.80;;;21.43;;
3563;SDS011;1796;52.388;13.096;2022-10-31T10:59:21;30.47;;;19.00;;
3563;SDS011;1796;52.388;13.096;2022-10-31T11:01:50;31.33;;;19.90;;
3563;SDS011;1796;52.388;13.096;2022-10-31T11:04:25;40.10;;;19.97;;
3563;SDS011;1796;52.388;13.096;2022-10-31T11:06:59;32.77;;;19.53;;
3563;SDS011;1796;52.388;13.096;2022-10-31T11:09:27;41.73;;;20.17;;
3563;SDS011;1796;52.388;13.096;2022-10-31T11:11:55;56.07;;;21.67;;
3563;SDS011;1796;52.388;13.096;2022-10-31T11:14:22;47.07;;;20.87;;
3563;SDS011;1796;52.388;13.096;2022-10-31T11:16:53;36.87;;;19.37;;
3563;SDS011;1796;52.388;13.096;2022-10-31T11:19:22;40.67;;;20.03;;
3563;SDS011;1796;52.388;13.096;2022-10-31T11:21:51;32.67;;;19.73;;
3563;SDS011;1796;52.388;13.096;2022-10-31T11:24:19;37.93;;;20.67;;
3563;SDS011;1796;52.388;13.096;2022-10-31T11:26:48;33.83;;;20.40;;
3563;SDS011;1796;52.388;13.096;2022-10-31T11:29:17;40.27;;;18.90;;
3563;SDS011;1796;52.388;13.096;2022-10-31T11:31:50;40.50;;;21.13;;
3563;SDS011;1796;52.388;13.096;2022-10-31T11:34:23;33.57;;;19.00;;
3563;SDS011;1796;52.388;13.096;2022-10-31T11:36:54;27.90;;;18.17;;
3563;SDS011;1796;52.388;13.096;2022-10-31T11:39:27;36.63;;;19.80;;
3563;SDS011;1796;52.388;13.096;2022-10-31T11:41:54;39.27;;;20.30;;
3563;SDS011;1796;52.388;13.096;2022-10-31T11:44:26;36.50;;;19.90;;
3563;SDS011;1796;52.388;13.096;2022-10-31T11:46:56;38.73;;;21.70;;
3563;SDS011;1796;52.388;13.096;2022-10-31T11:49:27;40.80;;;20.13;;
3563;SDS011;1796;52.388;13.096;2022-10-31T11:51:58;53.37;;;24.20;;
3563;SDS011;1796;52.388;13.096;2022-10-31T11:54:28;45.67;;;24.23;;
3563;SDS011;1796;52.388;13.096;2022-10-31T11:56:57;47.33;;;23.93;;
3563;SDS011;1796;52.388;13.096;2022-10-31T11:59:25;42.97;;;25.60;;
3563;SDS011;1796;52.388;13.096;2022-10-31T12:01:56;41.27;;;24.33;;
3563;SDS011;1796;52.388;13.096;2022-10-31T12:04:29;50.33;;;25.60;;
3563;SDS011;1796;52.388;13.096;2022-10-31T12:07:01;49.57;;;28.13;;
3563;SDS011;1796;52.388;13.096;2022-10-31T12:09:29;66.20;;;30.07;;
3563;SDS011;1796;52.388;13.096;2022-10-31T12:12:10;45.37;;;27.83;;
3563;SDS011;1796;52.388;13.096;2022-10-31T12:14:53;50.43;;;28.30;;
3563;SDS011;1796;52.388;13.096;2022-10-31T12:17:30;57.90;;;30.30;;
3563;SDS011;1796;52.388;13.096;2022-10-31T12:20:06;62.37;;;31.30;;
3563;SDS011;1796;52.388;13.096;2022-10-31T12:22:47;53.53;;;31.00;;
3563;SDS011;1796;52.388;13.096;2022-10-31T12:25:21;71.57;;;32.90;;
3563;SDS011;1796;52.388;13.096;2022-10-31T12:28:03;69.10;;;32.80;;
3563;SDS011;1796;52.388;13.096;2022-10-31T12:30:58;64.17;;;31.97;;
3563;SDS011;1796;52.388;13.096;2022-10-31T12:33:39;70.47;;;33.97;;
3563;SDS011;1796;52.388;13.096;2022-10-31T12:36:21;64.53;;;33.47;;
3563;SDS011;1796;52.388;13.096;2022-10-31T12:39:05;68.00;;;33.70;;
3563;SDS011;1796;52.388;13.096;2022-10-31T12:41:51;60.13;;;33.67;;
3563;SDS011;1796;52.388;13.096;2022-10-31T12:50:34;69.90;;;32.87;;
3563;SDS011;1796;52.388;13.096;2022-10-31T12:53:15;58.23;;;34.07;;
3563;SDS011;1796;52.388;13.096;2022-10-31T12:55:52;61.13;;;32.97;;
3563;SDS011;1796;52.388;13.096;2022-10-31T12:58:29;64.43;;;34.17;;
3563;SDS011;1796;52.388;13.096;2022-10-31T13:01:02;67.67;;;34.20;;
3563;SDS011;1796;52.388;13.096;2022-10-31T13:03:38;71.20;;;34.93;;
3563;SDS011;1796;52.388;13.096;2022-10-31T13:06:15;62.53;;;33.73;;
3563;SDS011;1796;52.388;13.096;2022-10-31T13:08:47;68.80;;;35.20;;
3563;SDS011;1796;52.388;13.096;2022-10-31T13:11:18;67.80;;;35.00;;
3563;SDS011;1796;52.388;13.096;2022-10-31T13:13:52;84.00;;;36.10;;
3563;SDS011;1796;52.388;13.096;2022-10-31T13:16:25;67.13;;;35.30;;
3563;SDS011;1796;52.388;13.096;2022-10-31T13:18:57;66.53;;;34.20;;
3563;SDS011;1796;52.388;13.096;2022-10-31T13:21:30;71.30;;;35.17;;
3563;SDS011;1796;52.388;13.096;2022-10-31T13:24:02;71.90;;;37.83;;
3563;SDS011;1796;52.388;13.096;2022-10-31T13:26:37;76.20;;;38.10;;
3563;SDS011;1796;52.388;13.096;2022-10-31T13:29:09;75.50;;;38.57;;
3563;SDS011;1796;52.388;13.096;2022-10-31T13:31:42;81.77;;;37.83;;
3563;SDS011;1796;52.388;13.096;2022-10-31T13:34:13;88.17;;;40.13;;
3563;SDS011;1796;52.388;13.096;2022-10-31T13:36:55;76.33;;;36.30;;
3563;SDS011;1796;52.388;13.096;2022-10-31T13:39:30;80.63;;;40.00;;
3563;SDS011;1796;52.388;13.096;2022-10-31T13:42:10;82.10;;;41.23;;
3563;SDS011;1796;52.388;13.096;2022-10-31T13:44:41;78.30;;;37.77;;
3563;SDS011;1796;52.388;13.096;2022-10-31T13:47:20;76.60;;;39.53;;
3563;SDS011;1796;52.388;13.096;2022-10-31T13:49:49;78.70;;;39.33;;
3563;SDS011;1796;52.388;13.096;2022-10-31T13:52:22;84.73;;;39.63;;
3563;SDS011;1796;52.388;13.096;2022-10-31T13:54:51;72.57;;;35.63;;
3563;SDS011;1796;52.388;13.096;2022-10-31T13:57:23;73.93;;;38.37;;
3563;SDS011;1796;52.388;13.096;2022-10-31T13:59:58;81.07;;;35.87;;
3563;SDS011;1796;52.388;13.096;2022-10-31T14:02:26;75.57;;;36.80;;
3563;SDS011;1796;52.388;13.096;2022-10-31T14:04:56;81.33;;;38.30;;
3563;SDS011;1796;52.388;13.096;2022-10-31T14:07:27;92.67;;;35.53;;
3563;SDS011;1796;52.388;13.096;2022-10-31T14:09:56;70.60;;;34.70;;
3563;SDS011;1796;52.388;13.096;2022-10-31T14:12:29;73.13;;;36.83;;
3563;SDS011;1796;52.388;13.096;2022-10-31T14:15:00;74.03;;;36.60;;
3563;SDS011;1796;52.388;13.096;2022-10-31T14:17:34;87.83;;;36.07;;
3563;SDS011;1796;52.388;13.096;2022-10-31T14:20:22;93.47;;;33.37;;
3563;SDS011;1796;52.388;13.096;2022-10-31T14:22:59;66.50;;;34.03;;
3563;SDS011;1796;52.388;13.096;2022-10-31T14:26:17;69.63;;;34.83;;
3563;SDS011;1796;52.388;13.096;2022-10-31T14:28:47;67.50;;;33.53;;
3563;SDS011;1796;52.388;13.096;2022-10-31T14:34:17;74.23;;;34.87;;
3563;SDS011;1796;52.388;13.096;2022-10-31T14:36:50;111.87;;;33.23;;
3563;SDS011;1796;52.388;13.096;2022-10-31T14:39:29;69.63;;;33.87;;
3563;SDS011;1796;52.388;13.096;2022-10-31T14:42:03;74.47;;;33.33;;
3563;SDS011;1796;52.388;13.096;2022-10-31T14:47:36;157.10;;;32.30;;
3563;SDS011;1796;52.388;13.096;2022-10-31T14:53:02;114.37;;;31.00;;
3563;SDS011;1796;52.388;13.096;2022-10-31T14:55:33;73.90;;;31.60;;
3563;SDS011;1796;52.388;13.096;2022-10-31T14:58:02;71.60;;;33.00;;
3563;SDS011;1796;52.388;13.096;2022-10-31T15:00:32;63.00;;;34.27;;
3563;SDS011;1796;52.388;13.096;2022-10-31T15:03:04;60.10;;;33.50;;
3563;SDS011;1796;52.388;13.096;2022-10-31T15:05:40;94.00;;;31.07;;
3563;SDS011;1796;52.388;13.096;2022-10-31T15:08:12;59.63;;;34.07;;
3563;SDS011;1796;52.388;13.096;2022-10-31T15:10:52;51.57;;;30.70;;
3563;SDS011;1796;52.388;13.096;2022-10-31T15:13:20;53.27;;;31.37;;